LFNQ weather

Mont Louis La Quillane Airfield
Languedoc-Roussillon, France

Public forecast

Using degrees Celsius for public forecast. Weather courtesy of forecast.io.

METAR (pilot weather report)

Closest report is Pirineus - la Seu d'Urgel Airport, 33.8 nm (62.6 km) WSW. Retrieved 2019/09/21 09:30 UTC (22 minutes ago):

LESU 210930Z 34003KT 300V360 9999 BCFG FEW000 SCT037 15/15 Q1017

TAF (pilot weather forecast)

Closest forecast is Pirineus - la Seu d'Urgel Airport, 33.8 nm (62.6 km) WSW. Retrieved 2019/09/21 09:00 UTC (52 minutes ago):

TAF COR LESU 210858Z 2109/2209 VRB04KT 9999 SCT040 TX24/2113Z TN11/2205Z TEMPO 2109/2112 0400 BCFG BKN004 PROB40 TEMPO 2109/2118 3000 TSRA BKN012 SCT030CB BKN040 TEMPO 2112/2117 21010KT